Cancun, Mexico

1:33 PM CST on December 21, 2014 (GMT -0600)
APRSWXNET Cancun MX | Change Station
CLOSE
Current Station
Personal Weather Station
Location: Cancun,
Elevation: 59 ft
Nearby Weather Stations

Elev 59 ft 21.15 °N, 86.84 °W | Updated 35 minutes ago

Mostly Cloudy
Mostly Cloudy
81 °F
Feels Like 87 °F
N
4
Wind Variable Wind from SE
Gusts 10.0 mph

Today
High -- | Low -- °F
--% Chance of Precip.
Yesterday
High -- | Low -- °F
Precip. -- in
6:19 AM 5:11 PM
Waning Crescent, 0% visible
Pressure 29.97 in
Visibility 8.0 miles
Clouds Mostly Cloudy 1500 ft
Mostly Cloudy 25000 ft
Heat Index 87 °F
Dew Point 76 °F
Humidity 84%
Rainfall 0.83 in
Snow Depth Not available.
UV 4 out of 12
Pollen Not available.
Air Quality Not available.
Flu Activity Not available.
METAR MMCZ 211842Z 28004KT 8SM BKN015TCU BKN250 24/24 A2997 RMK 8/208 SC CI CB W RTS

More Conditions Fewer Conditions

Pressure 29.97 in
Visibility 8.0 miles
Clouds Mostly Cloudy 1500 ft
Mostly Cloudy 25000 ft
Heat Index 87 °F
Dew Point 76 °F
Humidity 84%
Rainfall 0.83 in
Snow Depth Not available.
UV 4 out of 12
Pollen Not available.
Air Quality Not available.
Flu Activity Not available.
METAR MMCZ 211842Z 28004KT 8SM BKN015TCU BKN250 24/24 A2997 RMK 8/208 SC CI CB W RTS

More Conditions Fewer Conditions

10-Day Weather Forecast

Almanac

Astronomy

Dec. 21, 2014 Rise Set
Actual Time
Civil Twilight
Nautical Twilight
Astronomical Twilight
Moon
Length of Visible Light
Length of Day
Tomorrow will be .
, % of the Moon is Illuminated

Today's Extremes

Country Highs Country Lows

Community

WunderPhotos

Upload Photos

1,779,467 photos uploaded!

WunderBlogs® & News

Nearby

Air Quality

  Air Quality AQ Index Pollutant
Not available.

Snow Depth

Station Depth Elevation

Earthquake Activity

City Distance Mag. Time & Date
Minimum magnitude displayed is 2.5.

Coastal Water Temperatures

Place Temperature

Nearby Weather Stations